EW4792 Weather Reports


Display with metric or nautical units.
time (UTC)temp
F
wind
direction
speed
MPH
gust
MPH
rain 1hr
in
rain 24hr
in
rain mn
in
humidity
%
barometer
mb
20200229080630 59 208 7.0 10.0 0.00 0.00 0.00 42 1026.5
20200229080110 59 206 8.0 14.0 0.00 0.00 0.00 41 1026.5
20200229075623 59 207 9.0 14.0 0.00 0.00 0.00 42 1026.5
20200229075115 60 207 7.0 15.0 0.00 0.00 0.00 42 1026.6
20200229074624 60 223 7.0 15.0 0.00 0.00 0.00 40 1026.7
20200229074117 60 209 8.0 14.0 0.00 0.00 0.00 40 1026.7
20200229073629 60 202 9.0 14.0 0.00 0.00 0.00 41 1026.8
20200229073121 60 211 9.0 12.0 0.00 0.00 0.00 42 1026.9
20200229072613 59 200 8.0 11.0 0.00 0.00 0.00 42 1027.1
20200229072121 59 202 8.0 10.0 0.00 0.00 0.00 44 1026.9
20200229071613 58 243 4.0 6.0 0.00 0.00 0.00 50 1027.0
20200229071125 58 245 2.0 10.0 0.00 0.00 0.00 47 1026.9
20200229070619 59 245 4.0 10.0 0.00 0.00 0.00 45 1026.9
20200229070110 59 220 6.0 11.0 0.00 0.00 0.00 48 1026.9
20200229065622 59 222 7.0 11.0 0.00 0.00 0.00 48 1027.0
20200229065110 59 236 6.0 10.0 0.00 0.00 0.00 49 1026.9
20200229064623 58 230 6.0 9.0 0.00 0.00 0.00 47 1027.1
20200229064115 58 165 2.0 8.0 0.00 0.00 0.00 49 1027.0
20200229063627 58 105 3.0 5.0 0.00 0.00 0.00 49 1027.0
20200229063120 57 102 2.0 3.0 0.00 0.00 0.00 51 1027.1
20200229062628 57 102 1.0 2.0 0.00 0.00 0.00 52 1027.0
20200229062120 57 102 1.0 4.0 0.00 0.00 0.00 54 1026.9
20200229061612 57 102 1.0 4.0 0.00 0.00 0.00 53 1027.0
20200229061123 57 102 2.0 4.0 0.00 0.00 0.00 45 1026.9
20200229060620 56 102 1.0 4.0 0.00 0.00 0.00 55 1027.0
20200229060129 56 102 0.0 2.0 0.00 0.00 0.00 60 1027.0
20200229055624 56 102 1.0 5.0 0.00 0.00 0.00 58 1027.1
20200229055127 56 102 1.0 5.0 0.00 0.00 0.00 56 1027.2
20200229054639 56 102 0.0 4.0 0.00 0.00 0.00 54 1027.2
20200229054150 57 102 1.0 4.0 0.00 0.00 0.00 51 1027.2
20200229053700 58 102 1.0 4.0 0.00 0.00 0.00 42 1027.1
20200229053152 58 102 2.0 4.0 0.00 0.00 0.00 41 1027.2
20200229052644 58 102 2.0 3.0 0.00 0.00 0.00 43 1027.3
20200229052158 58 102 2.0 4.0 0.00 0.00 0.00 43 1027.1
20200229051655 58 102 3.0 4.0 0.00 0.00 0.00 43 1027.1
20200229051208 58 102 2.0 5.0 0.00 0.00 0.00 46 1027.1
20200229050615 58 102 3.0 5.0 0.00 0.00 0.00 44 1027.2
20200229050122 58 102 4.0 6.0 0.00 0.00 0.00 43 1027.3
20200229045619 58 102 5.0 6.0 0.00 0.00 0.00 44 1027.4
20200229045116 59 102 5.0 6.0 0.00 0.00 0.00 42 1027.2
20200229044621 59 102 3.0 5.0 0.00 0.00 0.00 42 1027.2
20200229044137 60 102 3.0 7.0 0.00 0.00 0.00 39 1027.5
20200229043117 60 101 6.0 9.0 0.00 0.00 0.00 48 1027.5
20200229042620 59 98 6.0 9.0 0.00 0.00 0.00 49 1027.4
20200229042133 59 94 4.0 6.0 0.00 0.00 0.00 47 1027.5
20200229041646 60 92 3.0 6.0 0.00 0.00 0.00 46 1027.6
20200229041142 60 92 5.0 7.0 0.00 0.00 0.00 42 1027.6
20200229040638 60 93 6.0 7.0 0.00 0.00 0.00 40 1027.5
20200229040132 61 93 5.0 8.0 0.00 0.00 0.00 39 1027.5
20200229035629 61 92 6.0 8.0 0.00 0.00 0.00 39 1027.4
20200229035124 61 92 6.0 8.0 0.00 0.00 0.00 39 1027.3
20200229034639 61 92 6.0 7.0 0.00 0.00 0.00 41 1027.3
20200229033620 61 87 4.0 6.0 0.00 0.00 0.00 39 1027.2
20200229033126 61 87 2.0 4.0 0.00 0.00 0.00 38 1027.4
20200229032623 62 87 3.0 5.0 0.00 0.00 0.00 43 1027.3
20200229032140 62 87 3.0 5.0 0.00 0.00 0.00 38 1027.3
20200229031207 62 87 5.0 8.0 0.00 0.00 0.00 40 1027.4
20200229030617 62 91 6.0 8.0 0.00 0.00 0.00 38 1027.2
20200229030115 62 94 6.0 8.0 0.00 0.00 0.00 40 1027.2
20200229025611 62 96 4.0 6.0 0.00 0.00 0.00 38 1027.2
20200229025124 62 96 4.0 6.0 0.00 0.00 0.00 40 1027.2
20200229024621 61 96 4.0 6.0 0.00 0.00 0.00 39 1027.2
20200229024115 61 96 4.0 5.0 0.00 0.00 0.00 41 1027.2
20200229023626 62 96 4.0 5.0 0.00 0.00 0.00 42 1027.2
20200229023140 62 96 2.0 5.0 0.00 0.00 0.00 39 1027.3
20200229022124 62 96 4.0 5.0 0.00 0.00 0.00 38 1027.1
20200229021640 62 96 2.0 5.0 0.00 0.00 0.00 42 1027.1
20200229021136 62 96 3.0 5.0 0.00 0.00 0.00 38 1027.2
20200229020207 63 96 4.0 6.0 0.00 0.00 0.00 37 1027.1
20200229015701 63 96 4.0 5.0 0.00 0.00 0.00 37 1027.0
20200229015156 63 96 4.0 6.0 0.00 0.00 0.00 37 1026.9
20200229014652 62 96 4.0 6.0 0.00 0.00 0.00 40 1026.9
20200229014145 62 96 5.0 8.0 0.00 0.00 0.00 44 1026.8
20200229013656 62 96 5.0 8.0 0.00 0.00 0.00 41 1026.7
20200229013154 63 195 1.0 2.0 0.00 0.00 0.00 47 1026.9
20200229012650 63 195 0.0 2.0 0.00 0.00 0.00 45 1026.8
20200229012145 63 195 1.0 4.0 0.00 0.00 0.00 41 1026.8
20200229011641 64 195 2.0 4.0 0.00 0.00 0.00 38 1026.7
20200229011136 64 195 3.0 6.0 0.00 0.00 0.00 37 1026.7
20200229010207 63 195 3.0 5.0 0.00 0.00 0.00 48 1026.7
20200229005702 63 195 4.0 6.0 0.00 0.00 0.00 47 1027.0
20200229005159 63 195 4.0 5.0 0.00 0.00 0.00 51 1026.9
20200229004652 63 195 4.0 5.0 0.00 0.00 0.00 50 1026.8
20200229004149 63 195 4.0 5.0 0.00 0.00 0.00 52 1026.8
20200229003701 63 195 3.0 4.0 0.00 0.00 0.00 59 1026.8
20200229003157 64 195 2.0 6.0 0.00 0.00 0.00 56 1026.8
20200229002654 65 195 4.0 6.0 0.00 0.00 0.00 48 1026.8
20200229002208 65 195 5.0 6.0 0.00 0.00 0.00 42 1026.7
20200229001704 66 195 5.0 6.0 0.00 0.00 0.00 43 1026.8
20200229001200 66 195 5.0 5.0 0.00 0.00 0.00 43 1026.7
20200229000654 65 195 5.0 8.0 0.00 0.00 0.00 41 1026.7
20200229000150 65 195 6.0 8.0 0.00 0.00 0.00 43 1026.8
20200228235646 65 195 6.0 8.0 0.00 0.00 0.00 46 1026.8
20200228235145 66 195 6.0 8.0 0.00 0.00 0.00 48 1026.7
20200228234641 66 195 7.0 8.0 0.00 0.00 0.00 44 1026.6
20200228234137 66 196 7.0 9.0 0.00 0.00 0.00 41 1026.6
20200228233634 67 196 6.0 9.0 0.00 0.00 0.00 43 1026.8
20200228233150 67 196 6.0 9.0 0.00 0.00 0.00 43 1026.7
20200228232647 67 198 7.0 9.0 0.00 0.00 0.00 41 1026.7
20200228232142 67 199 8.0 10.0 0.00 0.00 0.00 39 1026.5
20200228231651 67 200 8.0 10.0 0.00 0.00 0.00 40 1026.6
20200228231208 68 194 8.0 10.0 0.00 0.00 0.00 40 1026.5
20200228230617 68 192 8.0 9.0 0.00 0.00 0.00 38 1026.5
20200228230141 69 190 6.0 8.0 0.00 0.00 0.00 38 1026.5
20200228225639 70 180 5.0 8.0 0.00 0.00 0.00 31 1026.5
20200228224622 70 277 1.0 2.0 0.00 0.00 0.00 27 1026.6
20200228224118 71 277 1.0 2.0 0.00 0.00 0.00 27 1026.6
20200228223615 72 277 1.0 2.0 0.00 0.00 0.00 26 1026.5
20200228223121 72 277 0.0 1.0 0.00 0.00 0.00 26 1026.6
20200228222637 73 277 0.0 1.0 0.00 0.00 0.00 27 1026.5
20200228221703 71 277 0.0 0.0 0.00 0.00 0.00 27 1026.5
20200228221114 71 277 0.0 2.0 0.00 0.00 0.00 32 1026.5
20200228220609 71 277 0.0 4.0 0.00 0.00 0.00 28 1026.5
20200228220121 70 277 1.0 6.0 0.00 0.00 0.00 31 1026.5
20200228215617 70 277 3.0 6.0 0.00 0.00 0.00 27 1026.5
20200228215115 70 277 1.0 2.0 0.00 0.00 0.00 28 1026.5
20200228214622 70 277 1.0 2.0 0.00 0.00 0.00 30 1026.5
20200228214120 70 277 1.0 2.0 0.00 0.00 0.00 26 1026.4
20200228213636 70 277 1.0 2.0 0.00 0.00 0.00 25 1026.4
20200228213149 71 277 1.0 2.0 0.00 0.00 0.00 25 1026.5
20200228212124 71 277 0.0 1.0 0.00 0.00 0.00 25 1026.7
20200228211619 71 277 0.0 4.0 0.00 0.00 0.00 27 1026.7
20200228211113 71 277 2.0 4.0 0.00 0.00 0.00 32 1026.8
20200228210622 70 277 0.0 2.0 0.00 0.00 0.00 29 1026.6
20200228210139 70 277 0.0 1.0 0.00 0.00 0.00 26 1026.6
20200228205123 69 277 1.0 1.0 0.00 0.00 0.00 27 1026.6
20200228204619 69 277 0.0 1.0 0.00 0.00 0.00 27 1026.6
20200228204125 70 277 0.0 1.0 0.00 0.00 0.00 29 1026.8
20200228203638 69 277 0.0 1.0 0.00 0.00 0.00 30 1027.0
20200228202623 67 277 1.0 4.0 0.00 0.00 0.00 28 1027.1
20200228202117 68 277 2.0 4.0 0.00 0.00 0.00 30 1027.1
20200228201615 68 277 2.0 4.0 0.00 0.00 0.00 28 1027.2
20200228201140 68 277 1.0 2.0 0.00 0.00 0.00 28 1027.2
20200228200636 67 277 1.0 1.0 0.00 0.00 0.00 28 1027.2
20200228200151 67 277 0.0 4.0 0.00 0.00 0.00 27 1027.2
20200228195646 67 277 1.0 4.0 0.00 0.00 0.00 28 1027.2
20200228195141 68 277 1.0 4.0 0.00 0.00 0.00 30 1027.4
20200228194124 68 277 2.0 5.0 0.00 0.00 0.00 29 1027.5
20200228193640 67 277 1.0 2.0 0.00 0.00 0.00 31 1027.5
20200228192625 66 277 2.0 3.0 0.00 0.00 0.00 30 1027.7
20200228192122 66 277 1.0 3.0 0.00 0.00 0.00 34 1027.7
20200228191618 65 277 1.0 2.0 0.00 0.00 0.00 27 1027.8
20200228191110 65 277 1.0 2.0 0.00 0.00 0.00 32 1027.8
20200228190652 64 277 1.0 2.0 0.00 0.00 0.00 31 1028.0
20200228190205 64 277 0.0 2.0 0.00 0.00 0.00 34 1028.1
20200228185702 63 277 0.0 2.0 0.00 0.00 0.00 39 1028.1
20200228185159 63 277 1.0 2.0 0.00 0.00 0.00 43 1028.2
20200228184610 62 277 0.0 2.0 0.00 0.00 0.00 47 1028.3
20200228184124 62 277 1.0 2.0 0.00 0.00 0.00 49 1028.4
20200228183639 62 277 1.0 2.0 0.00 0.00 0.00 49 1028.8
20200228182708 62 277 1.0 2.0 0.00 0.00 0.00 44 1028.9
20200228182204 62 277 1.0 2.0 0.00 0.00 0.00 46 1029.0
20200228181700 61 277 0.0 5.0 0.00 0.00 0.00 44 1029.1
20200228181155 61 277 1.0 5.0 0.00 0.00 0.00 45 1029.3
20200228180647 60 277 3.0 4.0 0.00 0.00 0.00 44 1029.3
20200228180142 60 277 2.0 5.0 0.00 0.00 0.00 48 1029.2
20200228175638 59 277 2.0 5.0 0.00 0.00 0.00 47 1029.4
20200228174703 58 277 2.0 2.0 0.00 0.00 0.00 50 1029.6
20200228174200 58 277 0.0 2.0 0.00 0.00 0.00 51 1029.5
20200228173657 57 277 0.0 2.0 0.00 0.00 0.00 52 1029.6
20200228173152 57 277 2.0 5.0 0.00 0.00 0.00 53 1029.7
20200228172645 57 277 2.0 5.0 0.00 0.00 0.00 51 1029.7
20200228172131 56 277 2.0 5.0 0.00 0.00 0.00 52 1029.8
20200228171633 56 277 2.0 5.0 0.00 0.00 0.00 52 1029.9
20200228171127 55 277 3.0 6.0 0.00 0.00 0.00 53 1030.0
20200228170616 55 277 5.0 7.0 0.00 0.00 0.00 55 1029.9
20200228170122 55 277 5.0 7.0 0.00 0.00 0.00 55 1029.8
20200228165625 55 277 4.0 7.0 0.00 0.00 0.00 53 1029.7
20200228165128 54 277 5.0 8.0 0.00 0.00 0.00 54 1029.7
20200228164614 54 277 6.0 8.0 0.00 0.00 0.00 55 1029.7
20200228164118 54 279 5.0 9.0 0.00 0.00 0.00 55 1029.9
20200228163625 53 277 5.0 9.0 0.00 0.00 0.00 56 1029.9
20200228163141 53 277 6.0 9.0 0.00 0.00 0.00 57 1029.8
20200228162646 53 265 7.0 10.0 0.00 0.00 0.00 57 1029.9
20200228162150 52 265 8.0 10.0 0.00 0.00 0.00 59 1029.8
20200228161656 52 267 9.0 10.0 0.00 0.00 0.00 60 1030.0
20200228161158 51 273 8.0 10.0 0.00 0.00 0.00 58 1030.0
20200228160200 50 283 6.0 9.0 0.00 0.00 0.00 60 1030.0
20200228155201 50 279 5.0 8.0 0.00 0.00 0.00 56 1030.0
20200228154704 49 277 6.0 8.0 0.00 0.00 0.00 59 1029.9
20200228154206 49 273 5.0 7.0 0.00 0.00 0.00 60 1029.9
20200228153707 48 273 5.0 7.0 0.00 0.00 0.00 62 1030.1
20200228153151 48 273 4.0 6.0 0.00 0.00 0.00 62 1030.0
20200228152654 47 273 4.0 5.0 0.00 0.00 0.00 62 1029.9
20200228152156 46 273 4.0 5.0 0.00 0.00 0.00 63 1029.7
20200228151658 46 273 4.0 6.0 0.00 0.00 0.00 67 1029.8
20200228151143 46 273 5.0 6.0 0.00 0.00 0.00 66 1029.7
20200228150647 46 273 4.0 6.0 0.00 0.00 0.00 65 1029.7
20200228150149 45 273 4.0 6.0 0.00 0.00 0.00 67 1029.6
20200228145656 45 273 5.0 6.0 0.00 0.00 0.00 70 1029.7
20200228145159 45 273 5.0 7.0 0.00 0.00 0.00 69 1029.7
20200228144158 44 272 4.0 7.0 0.00 0.00 0.00 69 1029.3
20200228143202 44 272 5.0 8.0 0.00 0.00 0.00 71 1029.3
20200228142651 43 271 6.0 8.0 0.00 0.00 0.00 71 1029.3
20200228141651 43 263 6.0 8.0 0.00 0.00 0.00 74 1029.0
20200228141138 43 265 7.0 8.0 0.00 0.00 0.00 74 1029.0
20200228140629 43 266 7.0 8.0 0.00 0.00 0.00 74 1028.9
20200228140127 43 265 7.0 10.0 0.00 0.00 0.00 75 1028.9
20200228135641 43 265 8.0 10.0 0.00 0.00 0.00 75 1028.9
20200228135131 43 269 9.0 10.0 0.00 0.00 0.00 75 1028.8
20200228134630 42 269 9.0 10.0 0.00 0.00 0.00 75 1028.6
20200228134129 42 273 8.0 10.0 0.00 0.00 0.00 74 1028.7
20200228133618 41 284 8.0 9.0 0.00 0.00 0.00 75 1028.8
20200228133120 41 316 6.0 9.0 0.00 0.00 0.00 73 1028.5
20200228132616 40 319 7.0 10.0 0.00 0.00 0.00 74 1028.5
20200228132114 40 319 7.0 10.0 0.00 0.00 0.00 75 1028.4
20200228131629 41 322 7.0 9.0 0.00 0.00 0.00 74 1028.4
20200228131140 41 323 6.0 8.0 0.00 0.00 0.00 74 1028.3
20200228130204 43 307 6.0 8.0 0.00 0.00 0.00 73 1028.3
20200228125659 44 293 6.0 8.0 0.00 0.00 0.00 71 1028.1
20200228125154 45 279 4.0 6.0 0.00 0.00 0.00 68 1028.1
20200228124645 45 278 4.0 6.0 0.00 0.00 0.00 69 1028.1
20200228124139 45 278 4.0 6.0 0.00 0.00 0.00 68 1028.0
20200228123206 45 278 5.0 8.0 0.00 0.00 0.00 69 1027.9
20200228122701 45 283 5.0 9.0 0.00 0.00 0.00 68 1027.9
20200228122158 45 285 5.0 8.0 0.00 0.00 0.00 67 1027.9
20200228121653 44 290 4.0 7.0 0.00 0.00 0.00 68 1028.1
20200228121206 44 290 4.0 6.0 0.00 0.00 0.00 67 1027.9
20200228120702 44 289 4.0 6.0 0.00 0.00 0.00 67 1028.1
20200228120200 44 289 3.0 8.0 0.00 0.00 0.00 67 1027.9
20200228115656 45 289 5.0 8.0 0.00 0.00 0.00 67 1028.1
20200228115155 45 290 5.0 7.0 0.00 0.00 0.00 67 1027.7
20200228114650 45 284 4.0 8.0 0.00 0.00 0.00 68 1027.6
20200228114146 45 286 6.0 8.0 0.00 0.00 0.00 69 1027.7
20200228113641 44 294 5.0 7.0 0.00 0.00 0.00 70 1027.6
20200228113139 44 295 4.0 6.0 0.00 0.00 0.00 71 1027.6
20200228112636 44 295 4.0 5.0 0.00 0.00 0.00 69 1027.5
20200228112147 44 295 3.0 5.0 0.00 0.00 0.00 70 1027.5
20200228111643 44 295 3.0 6.0 0.00 0.00 0.00 69 1027.3
20200228111139 44 295 4.0 7.0 0.00 0.00 0.00 68 1027.3
20200228110637 44 295 4.0 8.0 0.00 0.00 0.00 68 1027.2
20200228110133 44 295 6.0 8.0 0.00 0.00 0.00 69 1027.1
20200228105631 44 298 6.0 8.0 0.00 0.00 0.00 70 1027.1
20200228105129 44 317 4.0 6.0 0.00 0.00 0.00 72 1027.1
20200228104617 44 317 4.0 6.0 0.00 0.00 0.00 72 1027.0
20200228104124 43 317 4.0 6.0 0.00 0.00 0.00 72 1027.0
20200228103620 43 318 4.0 6.0 0.00 0.00 0.00 72 1027.0
20200228103135 43 318 5.0 6.0 0.00 0.00 0.00 72 1027.0
20200228102649 43 318 5.0 7.0 0.00 0.00 0.00 73 1027.0
20200228102205 43 318 5.0 7.0 0.00 0.00 0.00 72 1027.0
20200228101615 44 317 5.0 7.0 0.00 0.00 0.00 71 1027.0
20200228101110 44 317 6.0 7.0 0.00 0.00 0.00 70 1026.9
20200228100624 44 302 5.0 7.0 0.00 0.00 0.00 69 1027.0
20200228100122 45 301 5.0 7.0 0.00 0.00 0.00 69 1026.8
20200228095617 45 301 5.0 6.0 0.00 0.00 0.00 68 1026.8
20200228095124 45 301 4.0 6.0 0.00 0.00 0.00 68 1026.7
20200228094641 45 301 4.0 8.0 0.00 0.00 0.00 68 1026.7
20200228093708 45 312 5.0 8.0 0.00 0.00 0.00 68 1026.8
20200228093114 45 316 5.0 8.0 0.00 0.00 0.00 68 1027.0
20200228092610 44 290 6.0 7.0 0.00 0.00 0.00 69 1026.7
20200228092124 45 284 5.0 7.0 0.00 0.00 0.00 70 1026.9
20200228091622 45 282 5.0 7.0 0.00 0.00 0.00 69 1026.9
20200228091115 46 279 5.0 7.0 0.00 0.00 0.00 67 1026.9
20200228090621 47 275 5.0 6.0 0.00 0.00 0.00 66 1027.0
20200228090117 48 270 4.0 8.0 0.00 0.00 0.00 64 1027.0
20200228085641 48 270 5.0 10.0 0.00 0.00 0.00 62 1027.0
20200228085137 49 261 6.0 11.0 0.00 0.00 0.00 60 1027.1
20200228084635 49 248 8.0 11.0 0.00 0.00 0.00 60 1027.1
20200228084149 49 244 8.0 11.0 0.00 0.00 0.00 57 1027.2
20200228083646 49 246 7.0 10.0 0.00 0.00 0.00 56 1027.3
20200228083142 49 245 6.0 10.0 0.00 0.00 0.00 57 1027.2
20200228082638 49 246 7.0 10.0 0.00 0.00 0.00 55 1027.2
20200228082135 49 265 7.0 10.0 0.00 0.00 0.00 55 1027.2
20200228081632 49 238 7.0 10.0 0.00 0.00 0.00 54 1027.2
20200228081110 49 238 7.0 10.0 0.00 0.00 0.00 57 1027.2